createdAt,value
2018-10-16T00:01:32.196Z,55.00
2018-10-16T00:04:05.848Z,55.10
2018-10-16T00:06:39.237Z,55.00
2018-10-16T00:09:12.788Z,55.20
2018-10-16T00:11:58.282Z,55.20
2018-10-16T00:14:31.747Z,55.40
2018-10-16T00:17:05.453Z,55.60
2018-10-16T00:19:38.739Z,55.70
2018-10-16T00:22:12.092Z,55.80
2018-10-16T00:24:45.585Z,55.80
2018-10-16T00:27:19.116Z,55.90
2018-10-16T00:29:52.553Z,56.10
2018-10-16T00:32:26.136Z,56.20
2018-10-16T00:34:59.450Z,56.30
2018-10-16T00:37:32.747Z,56.30
2018-10-16T00:40:06.644Z,56.50
2018-10-16T00:42:40.151Z,56.70
2018-10-16T00:45:13.490Z,56.60
2018-10-16T00:47:46.826Z,56.60
2018-10-16T00:50:20.226Z,56.80
2018-10-16T00:52:53.455Z,57.00
2018-10-16T00:55:26.737Z,57.00
2018-10-16T00:58:00.128Z,57.20
2018-10-16T01:00:33.672Z,57.40
2018-10-16T01:03:07.226Z,57.30
2018-10-16T01:05:40.785Z,57.20
2018-10-16T01:08:14.288Z,57.40
2018-10-16T01:10:47.696Z,57.60
2018-10-16T01:13:21.238Z,57.60
2018-10-16T01:15:54.539Z,57.70
2018-10-16T01:18:28.060Z,57.60
2018-10-16T01:21:01.493Z,58.00
2018-10-16T01:23:34.891Z,58.10
2018-10-16T01:26:08.100Z,58.20
2018-10-16T01:28:41.586Z,58.30
2018-10-16T01:31:14.944Z,58.50
2018-10-16T01:33:48.274Z,58.80
2018-10-16T01:36:21.771Z,58.90
2018-10-16T01:38:55.105Z,59.00
2018-10-16T01:41:28.544Z,59.00
2018-10-16T01:44:01.821Z,59.00
2018-10-16T01:46:35.111Z,59.10
2018-10-16T01:49:08.525Z,59.10
2018-10-16T01:51:42.043Z,59.20
2018-10-16T01:54:15.584Z,59.30
2018-10-16T01:56:49.154Z,59.40
2018-10-16T01:59:22.610Z,59.60
2018-10-16T02:01:56.035Z,59.50
2018-10-16T02:04:29.255Z,59.70
2018-10-16T02:07:02.893Z,60.00
2018-10-16T02:09:36.231Z,60.00
2018-10-16T02:12:09.496Z,60.00
2018-10-16T02:14:42.926Z,60.20
2018-10-16T02:17:16.335Z,60.40
2018-10-16T02:19:50.069Z,60.50
2018-10-16T02:22:23.584Z,60.50
2018-10-16T02:24:57.006Z,60.70
2018-10-16T02:27:30.453Z,60.90
2018-10-16T02:30:04.110Z,60.70
2018-10-16T02:32:37.636Z,61.00
2018-10-16T02:35:11.569Z,61.10
2018-10-16T02:37:44.883Z,61.20
2018-10-16T02:40:18.417Z,61.10
2018-10-16T02:42:51.898Z,61.30
2018-10-16T02:45:25.245Z,61.10
2018-10-16T02:47:58.691Z,61.10
2018-10-16T02:50:31.916Z,61.10
2018-10-16T02:53:05.152Z,61.20
2018-10-16T02:55:38.455Z,61.10
2018-10-16T02:58:11.906Z,61.00
2018-10-16T03:00:45.224Z,61.20
2018-10-16T03:03:18.542Z,61.20
2018-10-16T03:05:52.012Z,61.30
2018-10-16T03:08:25.624Z,61.30
2018-10-16T03:10:59.135Z,61.50
2018-10-16T03:13:32.802Z,61.70
2018-10-16T03:16:06.205Z,61.70
2018-10-16T03:18:39.715Z,61.80
2018-10-16T03:21:13.243Z,62.20
2018-10-16T03:23:46.681Z,62.20
2018-10-16T03:26:20.211Z,62.40
2018-10-16T03:28:53.581Z,62.40
2018-10-16T03:31:26.917Z,62.40
2018-10-16T03:34:00.217Z,62.50
2018-10-16T03:36:33.639Z,62.70
2018-10-16T03:39:08.744Z,62.70
2018-10-16T03:41:42.170Z,62.70
2018-10-16T03:44:15.606Z,62.70
2018-10-16T03:46:48.913Z,62.60
2018-10-16T03:49:22.512Z,62.70
2018-10-16T03:51:55.967Z,62.90
2018-10-16T03:54:29.452Z,63.00
2018-10-16T03:57:02.910Z,63.20
2018-10-16T03:59:36.417Z,63.30
2018-10-16T04:02:09.969Z,63.40
2018-10-16T04:04:43.944Z,63.30
2018-10-16T04:07:17.203Z,63.10
2018-10-16T04:09:50.463Z,63.30
2018-10-16T04:12:23.800Z,63.60
2018-10-16T04:14:57.058Z,63.80
2018-10-16T04:17:30.298Z,63.80
2018-10-16T04:20:03.602Z,64.10
2018-10-16T04:22:36.963Z,64.30
2018-10-16T04:25:10.299Z,64.40
2018-10-16T04:27:43.460Z,64.40
2018-10-16T04:30:16.766Z,64.30
2018-10-16T04:32:49.888Z,64.50
2018-10-16T04:35:23.262Z,64.40
2018-10-16T04:37:56.676Z,64.40
2018-10-16T04:40:30.053Z,64.50
2018-10-16T04:43:03.512Z,64.50
2018-10-16T04:45:36.720Z,64.80
2018-10-16T04:48:10.029Z,64.70
2018-10-16T04:50:43.332Z,64.80
2018-10-16T04:53:16.633Z,64.50
2018-10-16T04:55:50.195Z,64.50
2018-10-16T04:58:23.506Z,64.60
2018-10-16T05:00:56.803Z,64.90
2018-10-16T05:03:30.146Z,65.10
2018-10-16T05:06:03.477Z,65.20
2018-10-16T05:08:36.732Z,65.10
2018-10-16T05:11:10.043Z,65.20
2018-10-16T05:13:44.264Z,65.00
2018-10-16T05:16:17.441Z,65.10
2018-10-16T05:18:50.660Z,65.10
2018-10-16T05:21:24.527Z,65.00
2018-10-16T05:23:57.734Z,65.10
2018-10-16T05:26:30.979Z,65.20
2018-10-16T05:29:05.308Z,65.20
2018-10-16T05:31:39.026Z,65.40
2018-10-16T05:34:12.196Z,65.60
2018-10-16T05:36:45.375Z,65.50
2018-10-16T05:39:18.783Z,65.40
2018-10-16T05:41:52.487Z,64.80
2018-10-16T05:44:25.847Z,64.80
2018-10-16T05:46:59.243Z,64.80
2018-10-16T05:49:32.373Z,65.00
2018-10-16T05:52:05.647Z,65.40
2018-10-16T05:54:39.242Z,64.90
2018-10-16T05:57:12.514Z,64.60
2018-10-16T05:59:45.771Z,64.60
2018-10-16T06:02:19.122Z,64.60
2018-10-16T06:04:52.829Z,64.70
2018-10-16T06:07:26.135Z,64.60
2018-10-16T06:10:00.096Z,64.70
2018-10-16T06:12:33.332Z,64.80
2018-10-16T06:15:07.413Z,64.70
2018-10-16T06:17:40.928Z,64.30
2018-10-16T06:20:14.441Z,64.20
2018-10-16T06:22:47.792Z,63.90
2018-10-16T06:25:21.027Z,63.90
2018-10-16T06:27:54.259Z,63.50
2018-10-16T06:30:27.567Z,63.30
2018-10-16T06:33:00.631Z,63.00
2018-10-16T06:35:34.404Z,62.80
2018-10-16T06:38:07.603Z,62.80
2018-10-16T06:40:40.772Z,62.70
2018-10-16T06:43:15.062Z,62.50
2018-10-16T06:45:48.198Z,62.50
2018-10-16T06:48:22.181Z,62.50
2018-10-16T06:50:55.271Z,62.30
2018-10-16T06:53:29.442Z,62.10
2018-10-16T06:56:02.876Z,62.10
2018-10-16T06:58:36.139Z,62.00
2018-10-16T07:01:09.540Z,61.80
2018-10-16T07:03:43.159Z,61.50
2018-10-16T07:06:16.788Z,61.20
2018-10-16T07:08:50.801Z,61.00
2018-10-16T07:11:24.860Z,60.90
2018-10-16T07:13:58.591Z,60.50
2018-10-16T07:16:31.885Z,60.30
2018-10-16T07:19:05.642Z,60.10
2018-10-16T07:21:40.728Z,59.90
2018-10-16T07:24:15.261Z,59.60
2018-10-16T07:26:48.922Z,59.20
2018-10-16T07:29:23.093Z,58.90
2018-10-16T07:31:57.174Z,58.70
2018-10-16T07:34:30.560Z,58.10
2018-10-16T07:37:04.293Z,57.30
2018-10-16T07:39:38.007Z,56.80
2018-10-16T07:42:12.032Z,56.60
2018-10-16T07:44:46.441Z,56.60
2018-10-16T07:47:20.309Z,56.50
2018-10-16T07:49:54.297Z,56.70
2018-10-16T07:52:28.185Z,56.80
2018-10-16T07:55:01.345Z,56.70
2018-10-16T07:57:34.682Z,56.70
2018-10-16T08:00:09.916Z,56.70
2018-10-16T08:02:43.668Z,56.60
2018-10-16T08:05:17.272Z,56.30
2018-10-16T08:07:50.485Z,56.30
2018-10-16T08:10:24.604Z,56.10
2018-10-16T08:12:57.971Z,56.10
2018-10-16T08:15:31.321Z,56.30
2018-10-16T08:18:04.784Z,55.70
2018-10-16T08:20:38.141Z,55.70
2018-10-16T08:23:11.345Z,55.70
2018-10-16T08:25:44.620Z,55.60
2018-10-16T08:28:17.789Z,55.40
2018-10-16T08:30:51.403Z,55.30
2018-10-16T08:33:24.718Z,55.10
2018-10-16T08:35:58.444Z,55.00
2018-10-16T08:39:38.027Z,55.00
2018-10-16T08:42:31.477Z,54.80
2018-10-16T08:47:20.570Z,54.40
2018-10-16T08:50:06.356Z,54.60
2018-10-16T08:52:40.171Z,54.60
2018-10-16T08:55:13.566Z,54.60
2018-10-16T08:57:46.891Z,54.60
2018-10-16T09:00:20.572Z,54.40
2018-10-16T09:02:54.504Z,54.20
2018-10-16T09:05:28.068Z,54.20
2018-10-16T09:08:01.718Z,54.30
2018-10-16T09:10:35.813Z,54.20
2018-10-16T09:13:09.638Z,54.30
2018-10-16T09:15:43.677Z,54.20
2018-10-16T09:18:17.688Z,54.10
2018-10-16T09:20:51.047Z,54.10
2018-10-16T09:23:24.535Z,53.90
2018-10-16T09:25:57.825Z,53.70
2018-10-16T09:28:31.208Z,53.40
2018-10-16T09:31:04.637Z,53.60
2018-10-16T09:33:38.523Z,53.50
2018-10-16T09:36:12.483Z,53.60
2018-10-16T09:38:46.428Z,53.70
2018-10-16T09:41:20.412Z,53.60
2018-10-16T09:43:54.571Z,53.10
2018-10-16T09:46:28.509Z,53.10
2018-10-16T09:49:02.475Z,52.80
2018-10-16T09:51:36.469Z,52.70
2018-10-16T09:54:10.512Z,52.60
2018-10-16T09:56:44.608Z,52.60
2018-10-16T09:59:19.342Z,52.60
2018-10-16T10:01:54.179Z,52.70
2018-10-16T10:04:27.402Z,52.70
2018-10-16T10:07:00.541Z,52.30
2018-10-16T10:09:33.891Z,52.40
2018-10-16T10:12:07.342Z,52.70
2018-10-16T10:14:40.821Z,51.90
2018-10-16T10:17:14.277Z,51.80
2018-10-16T10:19:47.631Z,51.80
2018-10-16T10:22:21.035Z,51.40
2018-10-16T10:24:54.594Z,51.70
2018-10-16T10:27:29.200Z,51.60
2018-10-16T10:30:03.264Z,51.60
2018-10-16T10:32:37.466Z,51.50
2018-10-16T10:35:12.878Z,50.90
2018-10-16T10:37:46.226Z,50.20
2018-10-16T10:40:20.321Z,50.20
2018-10-16T10:42:55.145Z,50.20
2018-10-16T10:45:29.112Z,49.90
2018-10-16T10:48:03.064Z,49.50
2018-10-16T10:50:37.433Z,49.60
2018-10-16T10:53:10.687Z,49.50
2018-10-16T10:55:45.068Z,48.90
2018-10-16T10:58:18.377Z,49.00
2018-10-16T11:00:52.423Z,48.90
2018-10-16T11:03:25.796Z,48.80
2018-10-16T11:05:59.371Z,49.00
2018-10-16T11:08:32.754Z,48.60
2018-10-16T11:11:06.013Z,48.00
2018-10-16T11:13:39.970Z,48.10
2018-10-16T11:16:13.266Z,48.30
2018-10-16T11:18:47.139Z,48.10
2018-10-16T11:21:21.159Z,48.30
2018-10-16T11:23:54.458Z,47.60
2018-10-16T11:26:27.741Z,48.10
2018-10-16T11:29:00.885Z,47.60
2018-10-16T11:31:34.757Z,46.70
2018-10-16T11:34:08.300Z,46.60
2018-10-16T11:36:41.685Z,46.60
2018-10-16T11:39:15.218Z,46.40
2018-10-16T11:41:49.033Z,46.30
2018-10-16T11:44:22.420Z,46.20
2018-10-16T11:46:55.804Z,45.80
2018-10-16T11:49:29.627Z,45.30
2018-10-16T11:52:03.540Z,45.20
2018-10-16T11:54:36.724Z,43.90
2018-10-16T11:57:10.020Z,43.50
2018-10-16T11:59:43.907Z,42.10
2018-10-16T12:02:17.866Z,41.50
2018-10-16T12:04:52.018Z,41.10
2018-10-16T12:07:25.833Z,40.70
2018-10-16T12:09:59.952Z,40.90
2018-10-16T12:12:34.025Z,40.80
2018-10-16T12:15:07.891Z,41.00
2018-10-16T12:17:47.739Z,40.90
2018-10-16T12:20:25.894Z,40.70
2018-10-16T12:22:59.834Z,40.70
2018-10-16T12:25:33.782Z,40.80
2018-10-16T12:28:07.133Z,40.80
2018-10-16T12:30:41.428Z,40.40
2018-10-16T12:33:15.159Z,40.80
2018-10-16T12:35:48.225Z,40.90
2018-10-16T12:38:21.709Z,41.30
2018-10-16T12:40:55.059Z,41.20
2018-10-16T12:43:28.368Z,41.20
2018-10-16T12:46:01.778Z,41.80
2018-10-16T12:48:35.732Z,41.30
2018-10-16T12:51:09.125Z,40.90
2018-10-16T12:53:43.445Z,41.30
2018-10-16T12:56:17.042Z,40.30
2018-10-16T12:58:50.272Z,40.60
2018-10-16T13:01:24.232Z,40.60
2018-10-16T13:03:58.184Z,40.70
2018-10-16T13:06:31.355Z,40.50
2018-10-16T13:09:07.206Z,40.40
2018-10-16T13:11:41.936Z,40.70
2018-10-16T13:14:15.339Z,40.70
2018-10-16T13:16:49.170Z,40.90
2018-10-16T13:19:22.378Z,41.40
2018-10-16T13:21:55.549Z,41.90
2018-10-16T13:24:28.859Z,42.10
2018-10-16T13:27:02.587Z,42.70
2018-10-16T13:29:37.555Z,42.90
2018-10-16T13:32:10.777Z,43.20
2018-10-16T13:34:45.459Z,43.00
2018-10-16T13:37:19.816Z,43.00
2018-10-16T13:39:53.519Z,43.20
2018-10-16T13:42:27.614Z,43.30
2018-10-16T13:45:02.691Z,43.70
2018-10-16T13:47:36.306Z,43.50
2018-10-16T13:50:11.607Z,43.50
2018-10-16T13:52:45.460Z,43.90
2018-10-16T13:55:19.188Z,44.00
2018-10-16T13:57:52.427Z,43.80
2018-10-16T14:00:26.474Z,43.90
2018-10-16T14:02:59.840Z,44.40
2018-10-16T14:05:33.575Z,44.50
2018-10-16T14:08:07.721Z,44.70
2018-10-16T14:10:40.768Z,45.20
2018-10-16T14:13:14.261Z,44.80
2018-10-16T14:15:47.955Z,44.80
2018-10-16T14:18:22.035Z,44.80
2018-10-16T14:20:56.008Z,45.00
2018-10-16T14:23:29.371Z,45.10
2018-10-16T14:26:03.433Z,45.20
2018-10-16T14:28:37.327Z,45.30
2018-10-16T14:31:11.207Z,45.40
2018-10-16T14:33:45.391Z,45.50
2018-10-16T14:36:19.216Z,45.70
2018-10-16T14:38:53.855Z,45.70
2018-10-16T14:41:27.404Z,45.60
2018-10-16T14:44:00.831Z,45.60
2018-10-16T14:46:34.527Z,45.70
2018-10-16T14:49:08.450Z,45.70
2018-10-16T14:51:42.458Z,45.60
2018-10-16T14:54:16.468Z,45.50
2018-10-16T14:56:51.173Z,45.80
2018-10-16T14:59:24.480Z,45.80
2018-10-16T15:01:58.475Z,45.80
2018-10-16T15:04:37.111Z,45.90
2018-10-16T15:07:11.821Z,46.00
2018-10-16T15:09:45.529Z,46.20
2018-10-16T15:12:24.587Z,46.30
2018-10-16T15:14:59.092Z,46.30
2018-10-16T15:17:32.579Z,46.50
2018-10-16T15:20:07.362Z,46.60
2018-10-16T15:22:40.522Z,46.70
2018-10-16T15:25:14.495Z,46.80
2018-10-16T15:27:47.697Z,46.90
2018-10-16T15:30:20.962Z,47.00
2018-10-16T15:32:54.740Z,47.20
2018-10-16T15:35:28.131Z,47.40
2018-10-16T15:38:02.575Z,47.60
2018-10-16T15:40:35.988Z,47.70
2018-10-16T15:43:09.354Z,47.70
2018-10-16T15:45:42.680Z,48.00
2018-10-16T15:48:16.038Z,48.10
2018-10-16T15:50:49.245Z,48.40
2018-10-16T15:53:22.812Z,48.60
2018-10-16T15:55:56.784Z,48.90
2018-10-16T15:58:30.857Z,49.00
2018-10-16T16:01:04.911Z,49.20
2018-10-16T16:03:39.145Z,49.50
2018-10-16T16:06:12.888Z,49.60
2018-10-16T16:08:45.981Z,49.70
2018-10-16T16:11:20.108Z,49.80
2018-10-16T16:13:54.091Z,49.80
2018-10-16T16:16:27.769Z,50.00
2018-10-16T16:19:01.163Z,50.20
2018-10-16T16:21:35.216Z,50.40
2018-10-16T16:24:08.498Z,50.70
2018-10-16T16:26:42.469Z,50.80
2018-10-16T16:29:16.493Z,50.90
2018-10-16T16:31:49.984Z,51.20
2018-10-16T16:34:23.083Z,51.30
2018-10-16T16:36:56.241Z,51.80
2018-10-16T16:39:29.902Z,51.80
2018-10-16T16:42:03.228Z,51.80
2018-10-16T16:44:36.643Z,52.00
2018-10-16T16:47:10.471Z,51.80
2018-10-16T16:49:44.492Z,52.10
2018-10-16T16:52:18.458Z,52.20
2018-10-16T16:54:51.807Z,52.50
2018-10-16T16:57:25.828Z,52.60
2018-10-16T16:59:59.707Z,52.80
2018-10-16T17:02:33.761Z,52.90
2018-10-16T17:05:08.377Z,53.00
2018-10-16T17:07:42.362Z,53.20
2018-10-16T17:10:15.886Z,53.10
2018-10-16T17:12:49.046Z,53.30
2018-10-16T17:15:22.156Z,53.60
2018-10-16T17:17:55.438Z,53.70
2018-10-16T17:20:28.782Z,53.80
2018-10-16T17:23:02.063Z,54.00
2018-10-16T17:25:35.833Z,54.20
2018-10-16T17:28:09.781Z,54.10
2018-10-16T17:30:43.773Z,54.40
2018-10-16T17:33:17.786Z,54.50
2018-10-16T17:35:51.733Z,54.80
2018-10-16T17:38:25.750Z,54.80
2018-10-16T17:40:59.722Z,55.00
2018-10-16T17:43:35.506Z,55.10
2018-10-16T17:46:09.415Z,55.40
2018-10-16T17:48:43.795Z,55.70
2018-10-16T17:51:17.453Z,55.80
2018-10-16T17:53:51.926Z,56.00
2018-10-16T17:56:25.443Z,56.00
2018-10-16T17:58:59.413Z,56.10
2018-10-16T18:01:33.453Z,56.20
2018-10-16T18:04:07.562Z,56.30
2018-10-16T18:06:41.140Z,56.70
2018-10-16T18:09:14.669Z,56.90
2018-10-16T18:11:48.784Z,57.10
2018-10-16T18:14:22.617Z,57.10
2018-10-16T18:16:56.677Z,57.10
2018-10-16T18:19:30.760Z,57.00
2018-10-16T18:22:05.040Z,57.00
2018-10-16T18:24:41.537Z,57.20
2018-10-16T18:27:15.238Z,57.30
2018-10-16T18:29:49.462Z,57.20
2018-10-16T18:32:22.570Z,57.30
2018-10-16T18:34:55.807Z,57.30
2018-10-16T18:37:29.684Z,57.50
2018-10-16T18:40:06.305Z,57.70
2018-10-16T18:42:40.419Z,57.50
2018-10-16T18:45:14.706Z,57.60
2018-10-16T18:47:48.056Z,57.60
2018-10-16T18:50:22.168Z,57.90
2018-10-16T18:52:57.830Z,58.10
2018-10-16T18:55:31.858Z,58.10
2018-10-16T18:58:05.752Z,57.90
2018-10-16T19:00:39.268Z,57.90
2018-10-16T19:03:12.724Z,58.00
2018-10-16T19:05:46.215Z,58.40
2018-10-16T19:08:20.241Z,58.60
2018-10-16T19:10:53.500Z,58.70
2018-10-16T19:13:27.423Z,58.80
2018-10-16T19:16:01.675Z,58.80
2018-10-16T19:18:35.363Z,58.90
2018-10-16T19:21:09.524Z,59.00
2018-10-16T19:23:43.125Z,58.90
2018-10-16T19:26:16.530Z,58.70
2018-10-16T19:28:50.589Z,58.60
2018-10-16T19:31:25.392Z,59.20
2018-10-16T19:33:58.997Z,58.70
2018-10-16T19:36:33.455Z,58.90
2018-10-16T19:39:07.972Z,58.90
2018-10-16T19:41:41.444Z,59.20
2018-10-16T19:44:15.518Z,59.40
2018-10-16T19:46:50.287Z,59.50
2018-10-16T19:49:23.572Z,59.60
2018-10-16T19:51:57.780Z,59.70
2018-10-16T19:54:31.514Z,60.10
2018-10-16T19:57:05.968Z,60.20
2018-10-16T19:59:39.586Z,60.20
2018-10-16T20:02:13.580Z,60.30
2018-10-16T20:04:47.610Z,60.50
2018-10-16T20:07:21.028Z,60.80
2018-10-16T20:09:54.905Z,61.00
2018-10-16T20:12:28.775Z,61.00
2018-10-16T20:15:02.899Z,60.90
2018-10-16T20:17:36.926Z,61.10
2018-10-16T20:20:11.745Z,61.30
2018-10-16T20:22:45.593Z,61.10
2018-10-16T20:25:19.855Z,60.90
2018-10-16T20:27:53.746Z,60.70
2018-10-16T20:30:27.619Z,60.50
2018-10-16T20:33:01.675Z,60.60
2018-10-16T20:35:35.744Z,60.90
2018-10-16T20:38:09.841Z,61.00
2018-10-16T20:40:43.842Z,61.10
2018-10-16T20:43:17.707Z,61.30
2018-10-16T20:45:51.683Z,61.40
2018-10-16T20:48:25.645Z,61.60
2018-10-16T20:50:59.377Z,61.50
2018-10-16T20:53:33.012Z,61.50
2018-10-16T20:56:06.973Z,61.50
2018-10-16T20:58:40.993Z,61.50
2018-10-16T21:01:15.770Z,61.40
2018-10-16T21:03:49.208Z,61.70
2018-10-16T21:06:23.285Z,61.80
2018-10-16T21:08:57.941Z,62.00
2018-10-16T21:11:31.961Z,62.10
2018-10-16T21:14:05.788Z,62.10
2018-10-16T21:16:39.253Z,62.90
2018-10-16T21:19:13.226Z,62.50
2018-10-16T21:21:46.976Z,62.80
2018-10-16T21:24:21.176Z,63.10
2018-10-16T21:27:04.875Z,63.30
2018-10-16T21:29:38.979Z,63.60
2018-10-16T21:32:12.821Z,63.60
2018-10-16T21:34:46.017Z,63.70
2018-10-16T21:37:19.393Z,63.90
2018-10-16T21:39:53.354Z,64.00
2018-10-16T21:42:27.341Z,64.20
2018-10-16T21:45:01.420Z,64.30
2018-10-16T21:47:35.404Z,64.40
2018-10-16T21:50:09.264Z,64.50
2018-10-16T21:52:43.363Z,64.70
2018-10-16T21:55:17.474Z,64.80
2018-10-16T21:57:51.332Z,64.80
2018-10-16T22:02:36.737Z,64.90
2018-10-16T22:05:10.512Z,65.10
2018-10-16T22:07:44.450Z,65.20
2018-10-16T22:10:19.009Z,65.90
2018-10-16T22:12:53.131Z,66.60
2018-10-16T22:15:26.995Z,67.10
2018-10-16T22:18:00.820Z,67.40
2018-10-16T22:20:34.929Z,67.60
2018-10-16T22:23:08.628Z,67.80
2018-10-16T22:25:41.830Z,68.00
2018-10-16T22:28:15.634Z,68.30
2018-10-16T22:30:49.027Z,68.30
2018-10-16T22:33:22.559Z,68.40
2018-10-16T22:35:55.945Z,68.70
2018-10-16T22:38:29.422Z,68.80
2018-10-16T22:41:02.756Z,68.90
2018-10-16T22:43:35.917Z,69.10
2018-10-16T22:46:09.207Z,69.50
2018-10-16T22:48:42.447Z,69.70
2018-10-16T22:51:15.675Z,69.70
2018-10-16T22:53:48.810Z,69.60
2018-10-16T22:56:21.935Z,69.90
2018-10-16T22:58:55.795Z,70.00
2018-10-16T23:01:29.293Z,70.00
2018-10-16T23:04:02.863Z,70.10
2018-10-16T23:06:36.083Z,70.40
2018-10-16T23:09:10.039Z,70.40
2018-10-16T23:11:43.942Z,70.50
2018-10-16T23:14:17.288Z,70.50
2018-10-16T23:16:50.653Z,70.60
2018-10-16T23:19:24.284Z,70.90
2018-10-16T23:21:57.636Z,70.80
2018-10-16T23:24:31.559Z,70.80
2018-10-16T23:27:04.871Z,71.10
2018-10-16T23:29:38.091Z,71.10
2018-10-16T23:32:11.346Z,71.20
2018-10-16T23:34:45.164Z,71.60
2018-10-16T23:37:18.463Z,71.50
2018-10-16T23:39:52.438Z,71.50
2018-10-16T23:42:25.635Z,71.50
2018-10-16T23:44:58.855Z,71.40
2018-10-16T23:47:32.757Z,71.30
2018-10-16T23:50:05.987Z,71.40
2018-10-16T23:52:40.011Z,71.30
2018-10-16T23:55:13.361Z,71.30
2018-10-16T23:57:47.196Z,71.30
